createdAt,value
2022-08-21T00:00:20.391Z,18.28
2022-08-21T00:03:17.339Z,18.30
2022-08-21T00:06:01.436Z,18.26
2022-08-21T00:08:49.213Z,18.25
2022-08-21T00:11:34.471Z,18.22
2022-08-21T00:14:23.317Z,18.18
2022-08-21T00:17:04.486Z,18.18
2022-08-21T00:19:51.383Z,18.10
2022-08-21T00:22:45.640Z,18.05
2022-08-21T00:25:34.300Z,18.03
2022-08-21T00:28:18.957Z,18.00
2022-08-21T00:31:09.925Z,17.95
2022-08-21T00:33:53.059Z,17.94
2022-08-21T00:36:49.373Z,17.89
2022-08-21T00:39:31.011Z,17.89
2022-08-21T00:42:21.428Z,17.83
2022-08-21T00:45:02.227Z,17.82
2022-08-21T00:47:50.946Z,17.79
2022-08-21T00:50:39.608Z,17.74
2022-08-21T00:53:27.786Z,17.80
2022-08-21T00:56:10.249Z,17.80
2022-08-21T00:59:03.371Z,17.75
2022-08-21T01:01:45.372Z,17.72
2022-08-21T01:04:34.097Z,17.76
2022-08-21T01:07:16.347Z,17.70
2022-08-21T01:10:06.419Z,17.64
2022-08-21T01:12:48.999Z,17.61
2022-08-21T01:15:39.459Z,17.61
2022-08-21T01:18:21.286Z,17.62
2022-08-21T01:21:15.388Z,17.60
2022-08-21T01:24:00.728Z,17.61
2022-08-21T01:26:49.160Z,17.55
2022-08-21T01:29:55.260Z,17.55
2022-08-21T01:32:44.389Z,17.58
2022-08-21T01:35:27.259Z,17.57
2022-08-21T01:38:17.095Z,17.58
2022-08-21T01:40:58.259Z,17.57
2022-08-21T01:43:46.393Z,17.63
2022-08-21T01:46:27.771Z,17.60
2022-08-21T01:49:16.266Z,17.59
2022-08-21T01:51:57.398Z,17.58
2022-08-21T01:54:46.408Z,17.59
2022-08-21T01:57:36.683Z,17.39
2022-08-21T02:00:28.977Z,17.33
2022-08-21T02:03:11.024Z,17.45
2022-08-21T02:05:58.401Z,17.41
2022-08-21T02:08:40.482Z,17.33
2022-08-21T02:11:28.926Z,17.30
2022-08-21T02:14:10.279Z,17.39
2022-08-21T02:17:08.800Z,17.26
2022-08-21T02:19:50.691Z,17.12
2022-08-21T02:22:37.800Z,17.05
2022-08-21T02:25:19.440Z,17.03
2022-08-21T02:28:12.420Z,17.00
2022-08-21T02:30:56.447Z,16.95
2022-08-21T02:33:43.530Z,16.91
2022-08-21T02:36:25.896Z,16.89
2022-08-21T02:39:13.416Z,16.88
2022-08-21T02:41:54.467Z,16.84
2022-08-21T02:44:43.448Z,16.85
2022-08-21T02:47:25.596Z,16.82
2022-08-21T02:50:15.465Z,16.86
2022-08-21T02:53:00.718Z,16.74
2022-08-21T02:55:48.288Z,16.85
2022-08-21T02:58:36.334Z,16.93
2022-08-21T03:01:23.471Z,16.84
2022-08-21T03:04:06.636Z,16.83
2022-08-21T03:06:53.685Z,16.72
2022-08-21T03:09:35.759Z,16.70
2022-08-21T03:12:23.439Z,16.66
2022-08-21T03:15:07.777Z,16.64
2022-08-21T03:17:55.663Z,16.66
2022-08-21T03:20:50.367Z,16.61
2022-08-21T03:23:41.035Z,16.59
2022-08-21T03:26:23.823Z,16.58
2022-08-21T03:29:11.694Z,16.59
2022-08-21T03:31:53.437Z,16.65
2022-08-21T03:34:40.646Z,16.70
2022-08-21T03:37:22.854Z,16.72
2022-08-21T03:40:15.870Z,16.69
2022-08-21T03:42:57.001Z,16.81
2022-08-21T03:45:47.433Z,16.81
2022-08-21T03:48:29.767Z,16.78
2022-08-21T03:51:19.531Z,16.75
2022-08-21T03:54:02.348Z,16.76
2022-08-21T03:56:50.529Z,16.77
2022-08-21T03:59:31.429Z,16.81
2022-08-21T04:02:19.868Z,16.72
2022-08-21T04:05:00.411Z,16.71
2022-08-21T04:07:47.492Z,16.70
2022-08-21T04:10:28.772Z,16.69
2022-08-21T04:13:17.315Z,16.66
2022-08-21T04:15:58.361Z,16.61
2022-08-21T04:18:50.453Z,16.67
2022-08-21T04:21:46.395Z,16.68
2022-08-21T04:24:35.654Z,16.70
2022-08-21T04:27:16.437Z,16.70
2022-08-21T04:30:04.455Z,16.63
2022-08-21T04:32:45.733Z,16.60
2022-08-21T04:35:34.660Z,16.61
2022-08-21T04:38:19.419Z,16.65
2022-08-21T04:41:07.488Z,16.72
2022-08-21T04:43:48.362Z,16.70
2022-08-21T04:46:35.519Z,16.66
2022-08-21T04:49:16.396Z,16.64
2022-08-21T04:52:04.667Z,16.61
2022-08-21T04:54:45.776Z,16.63
2022-08-21T04:57:48.254Z,16.57
2022-08-21T05:00:32.757Z,16.61
2022-08-21T05:03:23.505Z,16.61
2022-08-21T05:06:04.765Z,16.67
2022-08-21T05:08:58.827Z,16.65
2022-08-21T05:11:44.395Z,16.59
2022-08-21T05:14:34.104Z,16.54
2022-08-21T05:17:16.202Z,16.63
2022-08-21T05:20:04.341Z,16.67
2022-08-21T05:22:51.443Z,16.81
2022-08-21T05:25:32.489Z,17.13
2022-08-21T05:28:23.529Z,17.15
2022-08-21T05:31:04.887Z,17.11
2022-08-21T05:33:53.115Z,17.04
2022-08-21T05:36:36.510Z,17.01
2022-08-21T05:39:26.427Z,16.96
2022-08-21T05:42:07.625Z,16.98
2022-08-21T05:44:54.458Z,16.95
2022-08-21T05:47:35.497Z,16.90
2022-08-21T05:50:24.393Z,16.84
2022-08-21T05:53:10.874Z,16.84
2022-08-21T05:55:58.521Z,16.84
2022-08-21T05:58:40.528Z,16.82
2022-08-21T06:01:28.490Z,16.83
2022-08-21T06:04:12.819Z,16.83
2022-08-21T06:07:00.492Z,16.84
2022-08-21T06:09:41.664Z,16.91
2022-08-21T06:12:30.443Z,17.01
2022-08-21T06:15:12.987Z,17.09
2022-08-21T06:18:02.445Z,17.02
2022-08-21T06:20:50.418Z,17.04
2022-08-21T06:23:47.235Z,17.11
2022-08-21T06:26:34.592Z,17.24
2022-08-21T06:29:18.670Z,17.44
2022-08-21T06:32:09.464Z,17.69
2022-08-21T06:34:51.648Z,17.99
2022-08-21T06:37:39.602Z,18.39
2022-08-21T06:40:20.518Z,18.74
2022-08-21T06:43:20.525Z,19.01
2022-08-21T06:46:02.603Z,19.20
2022-08-21T06:48:50.526Z,19.37
2022-08-21T06:51:38.458Z,19.47
2022-08-21T06:54:26.571Z,19.52
2022-08-21T06:57:07.907Z,19.54
2022-08-21T06:59:56.439Z,19.48
2022-08-21T07:02:37.911Z,19.44
2022-08-21T07:05:36.779Z,19.32
2022-08-21T07:08:17.955Z,19.27
2022-08-21T07:11:14.037Z,19.31
2022-08-21T07:13:55.416Z,19.37
2022-08-21T07:16:45.575Z,19.41
2022-08-21T07:19:51.661Z,19.41
2022-08-21T07:22:45.430Z,19.39
2022-08-21T07:25:34.244Z,19.39
2022-08-21T07:28:15.601Z,19.45
2022-08-21T07:31:05.537Z,19.60
2022-08-21T07:33:48.103Z,19.75
2022-08-21T07:36:36.622Z,19.89
2022-08-21T07:39:18.774Z,20.06
2022-08-21T07:42:08.495Z,20.23
2022-08-21T07:44:50.780Z,20.35
2022-08-21T07:47:43.219Z,20.42
2022-08-21T07:50:24.592Z,20.43
2022-08-21T07:53:12.795Z,20.46
2022-08-21T07:55:53.599Z,20.44
2022-08-21T07:58:42.979Z,20.33
2022-08-21T08:01:24.252Z,20.27
2022-08-21T08:07:15.991Z,20.24
2022-08-21T08:10:05.939Z,20.25
2022-08-21T08:12:49.611Z,20.33
2022-08-21T08:15:39.553Z,20.40
2022-08-21T08:18:21.042Z,20.45
2022-08-21T08:21:16.475Z,20.54
2022-08-21T08:24:18.991Z,20.58
2022-08-21T08:27:02.629Z,20.57
2022-08-21T08:29:50.105Z,20.69
2022-08-21T08:32:34.004Z,20.86
2022-08-21T08:35:22.367Z,20.95
2022-08-21T08:38:07.447Z,21.09
2022-08-21T08:41:23.031Z,21.42
2022-08-21T08:44:12.589Z,21.66
2022-08-21T08:47:00.615Z,21.93
2022-08-21T08:50:03.003Z,22.20
2022-08-21T08:53:00.283Z,22.45
2022-08-21T08:55:45.287Z,22.75
2022-08-21T08:58:46.619Z,22.95
2022-08-21T09:01:28.625Z,23.07
2022-08-21T09:04:19.443Z,23.17
2022-08-21T09:07:31.531Z,23.45
2022-08-21T09:10:45.636Z,23.82
2022-08-21T09:13:56.001Z,24.05
2022-08-21T09:17:02.359Z,24.15
2022-08-21T09:20:06.751Z,24.20
2022-08-21T09:23:08.621Z,24.24
2022-08-21T09:26:07.568Z,24.20
2022-08-21T09:29:04.298Z,24.23
2022-08-21T09:31:45.747Z,24.29
2022-08-21T09:34:38.633Z,24.31
2022-08-21T09:37:25.617Z,24.19
2022-08-21T09:40:34.788Z,24.21
2022-08-21T09:43:18.826Z,24.20
2022-08-21T09:46:18.642Z,24.16
2022-08-21T09:49:06.799Z,24.07
2022-08-21T09:52:02.406Z,23.99
2022-08-21T09:54:47.589Z,24.01
2022-08-21T09:57:46.623Z,24.04
2022-08-21T10:00:38.088Z,23.88
2022-08-21T10:03:28.872Z,23.98
2022-08-21T10:06:17.860Z,23.97
2022-08-21T10:09:18.843Z,24.13
2022-08-21T10:12:20.589Z,24.30
2022-08-21T10:15:21.435Z,24.29
2022-08-21T10:18:02.573Z,24.18
2022-08-21T10:21:25.569Z,24.11
2022-08-21T10:24:31.087Z,24.09
2022-08-21T10:27:33.284Z,23.99
2022-08-21T10:31:01.621Z,24.07
2022-08-21T10:33:59.695Z,24.20
2022-08-21T10:37:23.611Z,24.33
2022-08-21T10:40:30.284Z,24.32
2022-08-21T10:43:48.636Z,24.32
2022-08-21T10:46:52.698Z,24.26
2022-08-21T10:50:03.006Z,24.04
2022-08-21T10:52:59.047Z,23.85
2022-08-21T10:55:55.142Z,23.67
2022-08-21T10:58:44.866Z,23.57
2022-08-21T11:01:41.615Z,23.43
2022-08-21T11:04:49.497Z,23.42
2022-08-21T11:07:45.991Z,23.24
2022-08-21T11:10:59.174Z,23.20
2022-08-21T11:17:22.256Z,22.88
2022-08-21T11:20:22.623Z,22.73
2022-08-21T11:23:24.704Z,22.65
2022-08-21T11:26:16.064Z,22.45
2022-08-21T11:29:23.748Z,22.42
2022-08-21T11:32:10.239Z,22.19
2022-08-21T11:35:12.690Z,22.05
2022-08-21T11:37:56.710Z,22.06
2022-08-21T11:40:46.875Z,22.11
2022-08-21T11:43:53.047Z,22.04
2022-08-21T11:46:54.714Z,21.98
2022-08-21T11:49:42.723Z,21.84
2022-08-21T11:52:37.247Z,21.74
2022-08-21T11:55:17.736Z,21.72
2022-08-21T11:58:28.740Z,21.65
2022-08-21T12:01:33.406Z,21.52
2022-08-21T12:04:43.127Z,21.68
2022-08-21T12:07:43.772Z,21.74
2022-08-21T12:10:41.032Z,21.81
2022-08-21T12:13:42.026Z,21.88
2022-08-21T12:16:40.866Z,21.83
2022-08-21T12:19:37.676Z,21.73
2022-08-21T12:22:34.637Z,21.74
2022-08-21T12:25:27.284Z,21.74
2022-08-21T12:28:18.498Z,21.62
2022-08-21T12:31:05.715Z,21.69
2022-08-21T12:33:47.736Z,21.71
2022-08-21T12:36:57.035Z,21.65
2022-08-21T12:39:40.214Z,21.70
2022-08-21T12:42:35.485Z,21.70
2022-08-21T12:45:40.747Z,21.79
2022-08-21T12:48:42.654Z,21.90
2022-08-21T12:51:30.292Z,22.09
2022-08-21T12:54:17.038Z,22.30
2022-08-21T12:57:31.798Z,22.38
2022-08-21T13:00:21.658Z,22.45
2022-08-21T13:03:04.277Z,22.52
2022-08-21T13:05:50.650Z,22.58
2022-08-21T13:08:39.517Z,22.72
2022-08-21T13:11:33.707Z,22.61
2022-08-21T13:14:24.800Z,22.60
2022-08-21T13:17:20.324Z,22.73
2022-08-21T13:20:11.758Z,22.84
2022-08-21T13:23:06.539Z,22.69
2022-08-21T13:25:50.852Z,22.57
2022-08-21T13:28:53.229Z,22.44
2022-08-21T13:31:37.807Z,22.24
2022-08-21T13:34:28.128Z,21.96
2022-08-21T13:37:13.235Z,21.88
2022-08-21T13:40:00.900Z,21.91
2022-08-21T13:42:42.130Z,21.79
2022-08-21T13:45:38.769Z,21.68
2022-08-21T13:48:24.379Z,21.62
2022-08-21T13:51:17.299Z,21.55
2022-08-21T13:53:59.798Z,21.51
2022-08-21T13:56:55.702Z,21.53
2022-08-21T13:59:42.975Z,21.45
2022-08-21T14:02:31.751Z,21.36
2022-08-21T14:05:12.809Z,21.45
2022-08-21T14:08:30.434Z,21.33
2022-08-21T14:11:12.867Z,21.36
2022-08-21T14:14:06.194Z,21.46
2022-08-21T14:17:25.017Z,21.49
2022-08-21T14:20:21.090Z,21.32
2022-08-21T14:23:10.977Z,21.30
2022-08-21T14:25:54.573Z,21.21
2022-08-21T14:28:48.828Z,21.14
2022-08-21T14:31:41.823Z,21.23
2022-08-21T14:34:36.350Z,21.22
2022-08-21T14:37:16.784Z,21.21
2022-08-21T14:40:04.873Z,21.20
2022-08-21T14:42:48.810Z,21.21
2022-08-21T14:45:44.764Z,21.25
2022-08-21T14:48:27.107Z,21.22
2022-08-21T14:51:14.849Z,21.09
2022-08-21T14:53:55.751Z,20.97
2022-08-21T14:56:47.747Z,20.96
2022-08-21T14:59:29.797Z,20.90
2022-08-21T15:02:17.839Z,20.80
2022-08-21T15:05:00.122Z,20.73
2022-08-21T15:07:48.239Z,20.67
2022-08-21T15:10:29.467Z,20.71
2022-08-21T15:13:16.860Z,20.76
2022-08-21T15:16:00.893Z,20.84
2022-08-21T15:18:50.295Z,20.81
2022-08-21T15:21:31.333Z,20.67
2022-08-21T15:24:18.837Z,20.62
2022-08-21T15:27:01.937Z,20.67
2022-08-21T15:29:54.235Z,20.71
2022-08-21T15:32:36.783Z,20.79
2022-08-21T15:35:24.930Z,20.96
2022-08-21T15:38:06.289Z,21.03
2022-08-21T15:41:01.631Z,21.09
2022-08-21T15:43:50.743Z,21.16
2022-08-21T15:46:38.910Z,21.03
2022-08-21T15:49:22.003Z,20.86
2022-08-21T15:52:10.815Z,20.76
2022-08-21T15:54:52.304Z,20.60
2022-08-21T15:57:38.907Z,20.58
2022-08-21T16:00:24.278Z,20.60
2022-08-21T16:03:16.065Z,20.67
2022-08-21T16:05:59.857Z,20.74
2022-08-21T16:08:47.936Z,20.76
2022-08-21T16:11:29.012Z,20.82
2022-08-21T16:14:23.369Z,20.66
2022-08-21T16:17:04.554Z,20.41
2022-08-21T16:19:53.030Z,20.29
2022-08-21T16:22:47.972Z,20.14
2022-08-21T16:25:35.877Z,20.02
2022-08-21T16:28:23.863Z,20.00
2022-08-21T16:31:11.912Z,19.96
2022-08-21T16:34:00.998Z,19.94
2022-08-21T16:36:48.133Z,19.89
2022-08-21T16:39:29.209Z,19.87
2022-08-21T16:42:21.862Z,19.87
2022-08-21T16:45:03.803Z,19.88
2022-08-21T16:47:52.043Z,19.92
2022-08-21T16:50:34.205Z,20.01
2022-08-21T16:53:20.875Z,19.97
2022-08-21T16:56:08.571Z,19.80
2022-08-21T16:58:57.928Z,19.75
2022-08-21T17:01:40.891Z,19.75
2022-08-21T17:04:28.938Z,19.78
2022-08-21T17:07:10.273Z,19.79
2022-08-21T17:09:59.105Z,19.77
2022-08-21T17:12:41.558Z,19.91
2022-08-21T17:15:34.924Z,19.80
2022-08-21T17:18:20.278Z,19.77
2022-08-21T17:21:09.227Z,19.79
2022-08-21T17:24:04.842Z,19.80
2022-08-21T17:26:51.922Z,19.78
2022-08-21T17:29:41.190Z,19.79
2022-08-21T17:32:32.517Z,19.91
2022-08-21T17:35:15.179Z,19.92
2022-08-21T17:38:01.928Z,19.95
2022-08-21T17:40:46.681Z,20.02
2022-08-21T17:43:36.002Z,19.95
2022-08-21T17:46:24.424Z,19.97
2022-08-21T17:49:16.154Z,19.75
2022-08-21T17:52:01.404Z,19.75
2022-08-21T17:54:50.661Z,19.74
2022-08-21T17:57:34.841Z,19.72
2022-08-21T18:00:25.949Z,19.65
2022-08-21T18:03:20.859Z,19.59
2022-08-21T18:06:08.990Z,19.52
2022-08-21T18:08:51.251Z,19.60
2022-08-21T18:11:38.973Z,19.51
2022-08-21T18:14:21.235Z,19.50
2022-08-21T18:17:09.031Z,19.50
2022-08-21T18:19:50.237Z,19.39
2022-08-21T18:22:43.836Z,19.58
2022-08-21T18:25:31.211Z,19.52
2022-08-21T18:28:14.238Z,19.41
2022-08-21T18:31:27.855Z,19.27
2022-08-21T18:34:19.563Z,19.17
2022-08-21T18:37:09.235Z,19.05
2022-08-21T18:39:50.314Z,19.07
2022-08-21T18:42:55.683Z,19.04
2022-08-21T18:45:38.072Z,19.01
2022-08-21T18:48:29.382Z,19.09
2022-08-21T18:51:11.391Z,19.00
2022-08-21T18:54:00.879Z,19.03
2022-08-21T18:56:42.041Z,18.99
2022-08-21T18:59:34.097Z,19.02
2022-08-21T19:02:16.265Z,18.98
2022-08-21T19:05:05.382Z,19.04
2022-08-21T19:07:47.984Z,19.03
2022-08-21T19:10:36.653Z,19.15
2022-08-21T19:13:21.096Z,18.96
2022-08-21T19:16:12.261Z,18.91
2022-08-21T19:18:53.020Z,18.93
2022-08-21T19:21:43.648Z,18.99
2022-08-21T19:24:39.886Z,18.90
2022-08-21T19:27:37.892Z,18.93
2022-08-21T19:30:19.398Z,18.91
2022-08-21T19:33:06.878Z,18.81
2022-08-21T19:35:48.234Z,18.85
2022-08-21T19:38:43.015Z,18.75
2022-08-21T19:41:25.223Z,18.77
2022-08-21T19:44:15.061Z,18.74
2022-08-21T19:50:17.506Z,18.93
2022-08-21T19:52:59.148Z,18.83
2022-08-21T19:55:50.960Z,18.84
2022-08-21T19:58:35.517Z,18.69
2022-08-21T20:01:28.041Z,18.64
2022-08-21T20:04:18.242Z,18.73
2022-08-21T20:07:08.235Z,18.65
2022-08-21T20:10:08.057Z,18.70
2022-08-21T20:12:58.034Z,18.65
2022-08-21T20:15:39.017Z,18.55
2022-08-21T20:18:32.676Z,18.63
2022-08-21T20:21:14.239Z,18.75
2022-08-21T20:24:11.501Z,18.70
2022-08-21T20:27:05.979Z,18.65
2022-08-21T20:29:47.715Z,18.76
2022-08-21T20:32:39.080Z,18.59
2022-08-21T20:35:23.956Z,18.60
2022-08-21T20:41:30.281Z,18.56
2022-08-21T20:44:20.051Z,18.56
2022-08-21T20:47:01.012Z,18.57
2022-08-21T20:50:10.434Z,18.53
2022-08-21T20:52:58.719Z,18.69
2022-08-21T20:55:57.256Z,18.64
2022-08-21T20:58:49.687Z,18.74
2022-08-21T21:01:41.076Z,18.66
2022-08-21T21:04:39.025Z,18.71
2022-08-21T21:07:45.956Z,18.65
2022-08-21T21:10:44.859Z,18.63
2022-08-21T21:13:47.059Z,18.58
2022-08-21T21:16:52.205Z,18.57
2022-08-21T21:19:40.215Z,18.67
2022-08-21T21:22:34.309Z,18.77
2022-08-21T21:25:47.041Z,18.66
2022-08-21T21:28:55.144Z,18.65
2022-08-21T21:31:43.506Z,18.54
2022-08-21T21:34:24.332Z,18.50
2022-08-21T21:40:26.373Z,18.50
2022-08-21T21:43:18.332Z,18.52
2022-08-21T21:46:32.542Z,18.56
2022-08-21T21:49:39.080Z,18.60
2022-08-21T21:53:00.020Z,18.67
2022-08-21T21:55:53.591Z,18.67
2022-08-21T21:58:45.973Z,18.59
2022-08-21T22:01:44.118Z,18.51
2022-08-21T22:04:38.992Z,18.46
2022-08-21T22:07:55.231Z,18.40
2022-08-21T22:10:47.076Z,18.54
2022-08-21T22:13:49.061Z,18.59
2022-08-21T22:16:30.468Z,18.44
2022-08-21T22:19:29.324Z,18.37
2022-08-21T22:22:20.018Z,18.51
2022-08-21T22:25:35.954Z,18.46
2022-08-21T22:28:31.030Z,18.52
2022-08-21T22:31:34.943Z,18.43
2022-08-21T22:34:26.755Z,18.43
2022-08-21T22:37:14.399Z,18.47
2022-08-21T22:40:05.384Z,18.45
2022-08-21T22:42:46.492Z,18.58
2022-08-21T22:45:39.808Z,18.47
2022-08-21T22:48:27.118Z,18.44
2022-08-21T22:51:32.339Z,18.45
2022-08-21T22:54:16.682Z,18.55
2022-08-21T22:57:15.466Z,18.58
2022-08-21T23:00:04.118Z,18.44
2022-08-21T23:02:59.493Z,18.37
2022-08-21T23:05:44.414Z,18.34
2022-08-21T23:11:50.742Z,18.29
2022-08-21T23:14:42.824Z,18.27
2022-08-21T23:17:51.742Z,18.26
2022-08-21T23:21:16.387Z,18.30
2022-08-21T23:24:26.993Z,18.40
2022-08-21T23:27:46.042Z,18.36
2022-08-21T23:30:47.544Z,18.31
2022-08-21T23:33:42.122Z,18.19
2022-08-21T23:36:58.747Z,18.17
2022-08-21T23:40:04.436Z,18.28
2022-08-21T23:43:18.563Z,18.22
2022-08-21T23:46:15.060Z,18.20
2022-08-21T23:49:19.150Z,18.20
2022-08-21T23:52:17.769Z,18.05
2022-08-21T23:55:43.484Z,18.03
2022-08-21T23:59:28.163Z,18.08
